Terminal Aerodrome Forecast
Issued by NWS

Home | Current Version | Previous Version | Text Only | Print | Product List | Glossary On
Versions: 1 2 3 4 5 6 7 8 9 10 11 12 13
549
FTUS43 KICT 211735
TAFCNU
TAF
KCNU 211735Z 2118/2218 04013KT 6SM -TSRA SCT020 OVC035CB
      TEMPO 2119/2120 06025G37KT
     FM212000 05018G26KT P6SM BKN050
     FM220000 05016G24KT 5SM -RA OVC025
     FM220700 01017G25KT P6SM OVC015=

USA.gov is the U.S. government's official web portal to all federal, state and local government web resources and services.